Terminal Aerodrome Forecast
Issued by NWS

Home | Current Version | Previous Version | Text Only | Print | Product List | Glossary On
Versions: 1 2 3 4 5 6 7 8 9 10 11 12 13 14 15 16 17 18 19 20 21 22 23 24 25 26 27 28 29 30 31 32 33 34
000
FTUS41 KOKX 260523
TAFGON
TAF
KGON 260523Z 2606/2706 31013G25KT P6SM FEW050 SCT100
     FM261200 29016G26KT P6SM BKN050 BKN250
     FM262300 28013G20KT P6SM FEW060
     FM270200 27006KT P6SM SCT250=

USA.gov is the U.S. government's official web portal to all federal, state and local government web resources and services.